sensor_id;sensor_type;location;lat;lon;timestamp;P1;durP1;ratioP1;P2;durP2;ratioP2
83176;SDS011;73074;52.006;4.704;2023-11-19T00:03:52;25.00;;;3.67;;
83176;SDS011;73074;52.006;4.704;2023-11-19T00:08:53;19.23;;;3.05;;
83176;SDS011;73074;52.006;4.704;2023-11-19T00:13:55;15.48;;;2.97;;
83176;SDS011;73074;52.006;4.704;2023-11-19T00:19:05;16.90;;;3.35;;
83176;SDS011;73074;52.006;4.704;2023-11-19T00:24:08;18.55;;;3.00;;
83176;SDS011;73074;52.006;4.704;2023-11-19T00:29:11;20.85;;;3.53;;
83176;SDS011;73074;52.006;4.704;2023-11-19T00:34:17;20.15;;;3.60;;
83176;SDS011;73074;52.006;4.704;2023-11-19T00:39:17;24.05;;;4.22;;
83176;SDS011;73074;52.006;4.704;2023-11-19T00:44:18;21.98;;;3.67;;
83176;SDS011;73074;52.006;4.704;2023-11-19T00:49:19;22.35;;;3.53;;
83176;SDS011;73074;52.006;4.704;2023-11-19T00:54:20;21.15;;;4.32;;
83176;SDS011;73074;52.006;4.704;2023-11-19T00:59:29;24.52;;;4.00;;
83176;SDS011;73074;52.006;4.704;2023-11-19T01:04:34;31.42;;;4.07;;
83176;SDS011;73074;52.006;4.704;2023-11-19T01:09:42;25.00;;;4.70;;
83176;SDS011;73074;52.006;4.704;2023-11-19T01:14:52;28.17;;;4.45;;
83176;SDS011;73074;52.006;4.704;2023-11-19T01:30:43;22.55;;;3.55;;
83176;SDS011;73074;52.006;4.704;2023-11-19T01:35:56;34.80;;;5.18;;
83176;SDS011;73074;52.006;4.704;2023-11-19T01:46:26;29.42;;;6.22;;
83176;SDS011;73074;52.006;4.704;2023-11-19T01:51:27;28.25;;;4.28;;
83176;SDS011;73074;52.006;4.704;2023-11-19T01:56:33;38.40;;;4.80;;
83176;SDS011;73074;52.006;4.704;2023-11-19T02:07:00;30.23;;;4.25;;
83176;SDS011;73074;52.006;4.704;2023-11-19T02:12:13;30.27;;;4.68;;
83176;SDS011;73074;52.006;4.704;2023-11-19T02:17:24;23.95;;;3.58;;
83176;SDS011;73074;52.006;4.704;2023-11-19T02:27:51;36.70;;;5.93;;
83176;SDS011;73074;52.006;4.704;2023-11-19T02:32:57;24.00;;;4.50;;
83176;SDS011;73074;52.006;4.704;2023-11-19T02:38:07;37.33;;;5.03;;
83176;SDS011;73074;52.006;4.704;2023-11-19T02:43:14;28.58;;;6.30;;
83176;SDS011;73074;52.006;4.704;2023-11-19T02:58:46;40.67;;;4.53;;
83176;SDS011;73074;52.006;4.704;2023-11-19T03:03:52;29.95;;;3.92;;
83176;SDS011;73074;52.006;4.704;2023-11-19T03:08:53;28.52;;;4.68;;
83176;SDS011;73074;52.006;4.704;2023-11-19T03:14:07;29.05;;;4.68;;
83176;SDS011;73074;52.006;4.704;2023-11-19T03:19:09;23.00;;;5.63;;
83176;SDS011;73074;52.006;4.704;2023-11-19T03:24:12;27.65;;;3.90;;
83176;SDS011;73074;52.006;4.704;2023-11-19T03:29:28;25.02;;;4.10;;
83176;SDS011;73074;52.006;4.704;2023-11-19T03:34:47;27.15;;;3.60;;
83176;SDS011;73074;52.006;4.704;2023-11-19T03:39:50;29.73;;;4.95;;
83176;SDS011;73074;52.006;4.704;2023-11-19T03:44:54;27.55;;;4.28;;
83176;SDS011;73074;52.006;4.704;2023-11-19T03:49:55;32.10;;;4.00;;
83176;SDS011;73074;52.006;4.704;2023-11-19T04:11:18;37.78;;;5.25;;
83176;SDS011;73074;52.006;4.704;2023-11-19T04:16:25;26.95;;;4.68;;
83176;SDS011;73074;52.006;4.704;2023-11-19T04:21:36;24.45;;;3.85;;
83176;SDS011;73074;52.006;4.704;2023-11-19T04:26:50;33.03;;;4.80;;
83176;SDS011;73074;52.006;4.704;2023-11-19T04:31:51;21.63;;;3.92;;
83176;SDS011;73074;52.006;4.704;2023-11-19T04:36:53;35.88;;;5.40;;
83176;SDS011;73074;52.006;4.704;2023-11-19T04:47:24;29.20;;;4.85;;
83176;SDS011;73074;52.006;4.704;2023-11-19T04:52:29;30.98;;;4.38;;
83176;SDS011;73074;52.006;4.704;2023-11-19T04:57:33;36.72;;;5.70;;
83176;SDS011;73074;52.006;4.704;2023-11-19T05:02:34;28.50;;;4.43;;
83176;SDS011;73074;52.006;4.704;2023-11-19T05:12:51;39.83;;;4.93;;
83176;SDS011;73074;52.006;4.704;2023-11-19T05:17:52;47.10;;;5.07;;
83176;SDS011;73074;52.006;4.704;2023-11-19T05:23:00;34.67;;;4.38;;
83176;SDS011;73074;52.006;4.704;2023-11-19T05:28:01;27.45;;;3.42;;
83176;SDS011;73074;52.006;4.704;2023-11-19T05:33:12;30.48;;;5.03;;
83176;SDS011;73074;52.006;4.704;2023-11-19T05:38:13;33.47;;;4.65;;
83176;SDS011;73074;52.006;4.704;2023-11-19T05:43:19;19.70;;;4.50;;
83176;SDS011;73074;52.006;4.704;2023-11-19T05:48:30;26.48;;;4.88;;
83176;SDS011;73074;52.006;4.704;2023-11-19T05:53:38;34.67;;;5.00;;
83176;SDS011;73074;52.006;4.704;2023-11-19T05:58:41;28.77;;;4.15;;
83176;SDS011;73074;52.006;4.704;2023-11-19T06:14:36;41.38;;;5.22;;
83176;SDS011;73074;52.006;4.704;2023-11-19T06:19:39;22.55;;;4.05;;
83176;SDS011;73074;52.006;4.704;2023-11-19T06:24:43;29.90;;;4.45;;
83176;SDS011;73074;52.006;4.704;2023-11-19T06:35:06;29.02;;;4.20;;
83176;SDS011;73074;52.006;4.704;2023-11-19T06:40:10;30.98;;;4.32;;
83176;SDS011;73074;52.006;4.704;2023-11-19T06:45:14;26.45;;;3.50;;
83176;SDS011;73074;52.006;4.704;2023-11-19T06:50:15;23.65;;;4.70;;
83176;SDS011;73074;52.006;4.704;2023-11-19T07:16:52;25.52;;;3.95;;
83176;SDS011;73074;52.006;4.704;2023-11-19T07:21:59;37.83;;;5.45;;
83176;SDS011;73074;52.006;4.704;2023-11-19T07:27:02;31.85;;;3.50;;
83176;SDS011;73074;52.006;4.704;2023-11-19T07:32:03;33.47;;;4.53;;
83176;SDS011;73074;52.006;4.704;2023-11-19T07:37:05;28.95;;;4.03;;
83176;SDS011;73074;52.006;4.704;2023-11-19T07:42:06;26.20;;;4.88;;
83176;SDS011;73074;52.006;4.704;2023-11-19T07:47:10;26.00;;;4.10;;
83176;SDS011;73074;52.006;4.704;2023-11-19T07:52:11;23.77;;;3.45;;
83176;SDS011;73074;52.006;4.704;2023-11-19T07:57:12;27.92;;;5.28;;
83176;SDS011;73074;52.006;4.704;2023-11-19T08:02:22;32.10;;;4.88;;
83176;SDS011;73074;52.006;4.704;2023-11-19T08:07:31;32.55;;;4.95;;
83176;SDS011;73074;52.006;4.704;2023-11-19T08:12:40;22.50;;;4.70;;
83176;SDS011;73074;52.006;4.704;2023-11-19T08:22:51;24.92;;;4.15;;
83176;SDS011;73074;52.006;4.704;2023-11-19T08:27:51;28.98;;;3.17;;
83176;SDS011;73074;52.006;4.704;2023-11-19T08:32:58;24.00;;;4.00;;
83176;SDS011;73074;52.006;4.704;2023-11-19T08:38:03;25.13;;;3.85;;
83176;SDS011;73074;52.006;4.704;2023-11-19T08:43:04;33.97;;;5.53;;
83176;SDS011;73074;52.006;4.704;2023-11-19T08:48:12;22.10;;;3.63;;
83176;SDS011;73074;52.006;4.704;2023-11-19T08:53:20;27.63;;;3.80;;
83176;SDS011;73074;52.006;4.704;2023-11-19T09:04:01;29.88;;;3.80;;
83176;SDS011;73074;52.006;4.704;2023-11-19T09:09:03;34.35;;;4.85;;
83176;SDS011;73074;52.006;4.704;2023-11-19T09:14:04;27.45;;;4.07;;
83176;SDS011;73074;52.006;4.704;2023-11-19T09:19:22;30.00;;;4.63;;
83176;SDS011;73074;52.006;4.704;2023-11-19T09:24:31;27.20;;;5.10;;
83176;SDS011;73074;52.006;4.704;2023-11-19T09:29:33;35.70;;;4.75;;
83176;SDS011;73074;52.006;4.704;2023-11-19T09:34:34;32.28;;;5.57;;
83176;SDS011;73074;52.006;4.704;2023-11-19T09:39:35;34.95;;;5.18;;
83176;SDS011;73074;52.006;4.704;2023-11-19T09:44:47;29.10;;;4.28;;
83176;SDS011;73074;52.006;4.704;2023-11-19T09:49:53;16.75;;;3.03;;
83176;SDS011;73074;52.006;4.704;2023-11-19T09:55:08;29.20;;;3.88;;
83176;SDS011;73074;52.006;4.704;2023-11-19T10:00:10;26.52;;;4.00;;
83176;SDS011;73074;52.006;4.704;2023-11-19T10:05:18;25.00;;;4.43;;
83176;SDS011;73074;52.006;4.704;2023-11-19T10:10:23;19.38;;;3.45;;
83176;SDS011;73074;52.006;4.704;2023-11-19T10:15:26;29.48;;;4.25;;
83176;SDS011;73074;52.006;4.704;2023-11-19T10:25:38;25.13;;;4.22;;
83176;SDS011;73074;52.006;4.704;2023-11-19T10:30:56;18.55;;;3.63;;
83176;SDS011;73074;52.006;4.704;2023-11-19T10:35:57;23.00;;;3.42;;
83176;SDS011;73074;52.006;4.704;2023-11-19T10:40:58;26.33;;;3.58;;
83176;SDS011;73074;52.006;4.704;2023-11-19T10:46:13;23.10;;;4.03;;
83176;SDS011;73074;52.006;4.704;2023-11-19T10:51:17;23.23;;;3.97;;
83176;SDS011;73074;52.006;4.704;2023-11-19T10:56:23;16.25;;;3.13;;
83176;SDS011;73074;52.006;4.704;2023-11-19T11:01:34;21.85;;;3.53;;
83176;SDS011;73074;52.006;4.704;2023-11-19T11:06:44;26.92;;;3.42;;
83176;SDS011;73074;52.006;4.704;2023-11-19T11:11:51;24.40;;;4.78;;
83176;SDS011;73074;52.006;4.704;2023-11-19T11:16:55;33.58;;;4.13;;
83176;SDS011;73074;52.006;4.704;2023-11-19T11:22:01;29.40;;;4.45;;
83176;SDS011;73074;52.006;4.704;2023-11-19T11:33:06;21.48;;;3.97;;
83176;SDS011;73074;52.006;4.704;2023-11-19T11:38:31;18.67;;;3.35;;
83176;SDS011;73074;52.006;4.704;2023-11-19T11:43:46;20.30;;;3.88;;
83176;SDS011;73074;52.006;4.704;2023-11-19T11:49:09;23.67;;;3.47;;
83176;SDS011;73074;52.006;4.704;2023-11-19T11:54:11;21.48;;;3.53;;
83176;SDS011;73074;52.006;4.704;2023-11-19T11:59:31;20.98;;;3.55;;
83176;SDS011;73074;52.006;4.704;2023-11-19T12:04:46;23.30;;;3.67;;
83176;SDS011;73074;52.006;4.704;2023-11-19T12:15:19;22.70;;;2.85;;
83176;SDS011;73074;52.006;4.704;2023-11-19T12:20:26;16.15;;;2.92;;
83176;SDS011;73074;52.006;4.704;2023-11-19T12:25:38;16.95;;;2.40;;
83176;SDS011;73074;52.006;4.704;2023-11-19T12:30:39;27.33;;;3.90;;
83176;SDS011;73074;52.006;4.704;2023-11-19T12:35:45;16.85;;;2.40;;
83176;SDS011;73074;52.006;4.704;2023-11-19T12:46:20;27.60;;;3.53;;
83176;SDS011;73074;52.006;4.704;2023-11-19T12:51:22;20.63;;;3.92;;
83176;SDS011;73074;52.006;4.704;2023-11-19T12:56:26;31.00;;;4.13;;
83176;SDS011;73074;52.006;4.704;2023-11-19T13:01:38;21.08;;;3.22;;
83176;SDS011;73074;52.006;4.704;2023-11-19T13:06:45;16.77;;;3.28;;
83176;SDS011;73074;52.006;4.704;2023-11-19T13:11:50;27.80;;;4.22;;
83176;SDS011;73074;52.006;4.704;2023-11-19T13:16:56;22.42;;;3.35;;
83176;SDS011;73074;52.006;4.704;2023-11-19T13:22:01;22.67;;;3.72;;
83176;SDS011;73074;52.006;4.704;2023-11-19T13:27:06;30.05;;;4.82;;
83176;SDS011;73074;52.006;4.704;2023-11-19T13:37:21;23.35;;;4.20;;
83176;SDS011;73074;52.006;4.704;2023-11-19T13:42:24;29.48;;;3.60;;
83176;SDS011;73074;52.006;4.704;2023-11-19T13:47:31;19.77;;;3.70;;
83176;SDS011;73074;52.006;4.704;2023-11-19T13:52:32;17.88;;;2.75;;
83176;SDS011;73074;52.006;4.704;2023-11-19T13:57:33;15.55;;;2.75;;
83176;SDS011;73074;52.006;4.704;2023-11-19T14:02:33;20.33;;;3.55;;
83176;SDS011;73074;52.006;4.704;2023-11-19T14:07:36;24.77;;;4.70;;
83176;SDS011;73074;52.006;4.704;2023-11-19T14:12:37;24.27;;;3.08;;
83176;SDS011;73074;52.006;4.704;2023-11-19T14:17:39;23.70;;;3.72;;
83176;SDS011;73074;52.006;4.704;2023-11-19T14:22:40;29.00;;;4.32;;
83176;SDS011;73074;52.006;4.704;2023-11-19T14:32:53;22.60;;;4.45;;
83176;SDS011;73074;52.006;4.704;2023-11-19T14:38:01;29.85;;;4.78;;
83176;SDS011;73074;52.006;4.704;2023-11-19T14:43:03;22.80;;;3.17;;
83176;SDS011;73074;52.006;4.704;2023-11-19T14:48:04;26.88;;;3.63;;
83176;SDS011;73074;52.006;4.704;2023-11-19T14:53:06;26.92;;;3.35;;
83176;SDS011;73074;52.006;4.704;2023-11-19T14:58:06;21.02;;;3.20;;
83176;SDS011;73074;52.006;4.704;2023-11-19T15:03:08;18.70;;;3.63;;
83176;SDS011;73074;52.006;4.704;2023-11-19T15:08:09;21.55;;;3.97;;
83176;SDS011;73074;52.006;4.704;2023-11-19T15:13:11;19.90;;;3.13;;
83176;SDS011;73074;52.006;4.704;2023-11-19T15:18:12;21.77;;;3.15;;
83176;SDS011;73074;52.006;4.704;2023-11-19T15:23:15;23.48;;;3.13;;
83176;SDS011;73074;52.006;4.704;2023-11-19T15:28:16;21.38;;;4.15;;
83176;SDS011;73074;52.006;4.704;2023-11-19T15:33:21;28.70;;;3.88;;
83176;SDS011;73074;52.006;4.704;2023-11-19T15:38:22;23.75;;;4.88;;
83176;SDS011;73074;52.006;4.704;2023-11-19T15:43:33;15.35;;;2.85;;
83176;SDS011;73074;52.006;4.704;2023-11-19T15:48:36;18.33;;;2.88;;
83176;SDS011;73074;52.006;4.704;2023-11-19T15:53:37;21.90;;;3.15;;
83176;SDS011;73074;52.006;4.704;2023-11-19T15:58:39;16.92;;;3.40;;
83176;SDS011;73074;52.006;4.704;2023-11-19T16:03:40;22.48;;;4.10;;
83176;SDS011;73074;52.006;4.704;2023-11-19T16:08:41;20.77;;;3.45;;
83176;SDS011;73074;52.006;4.704;2023-11-19T16:13:47;22.67;;;3.42;;
83176;SDS011;73074;52.006;4.704;2023-11-19T16:18:54;28.40;;;3.90;;
83176;SDS011;73074;52.006;4.704;2023-11-19T16:23:55;17.08;;;2.80;;
83176;SDS011;73074;52.006;4.704;2023-11-19T16:28:56;17.70;;;3.15;;
83176;SDS011;73074;52.006;4.704;2023-11-19T16:33:57;20.40;;;4.30;;
83176;SDS011;73074;52.006;4.704;2023-11-19T16:38:58;23.92;;;4.05;;
83176;SDS011;73074;52.006;4.704;2023-11-19T16:44:08;28.15;;;4.65;;
83176;SDS011;73074;52.006;4.704;2023-11-19T16:49:09;21.48;;;3.60;;
83176;SDS011;73074;52.006;4.704;2023-11-19T16:54:10;20.58;;;3.25;;
83176;SDS011;73074;52.006;4.704;2023-11-19T16:59:11;19.40;;;3.60;;
83176;SDS011;73074;52.006;4.704;2023-11-19T17:04:15;22.52;;;4.05;;
83176;SDS011;73074;52.006;4.704;2023-11-19T17:09:16;26.48;;;4.15;;
83176;SDS011;73074;52.006;4.704;2023-11-19T17:14:17;17.10;;;2.92;;
83176;SDS011;73074;52.006;4.704;2023-11-19T17:19:18;24.77;;;3.80;;
83176;SDS011;73074;52.006;4.704;2023-11-19T17:24:19;23.17;;;3.33;;
83176;SDS011;73074;52.006;4.704;2023-11-19T17:29:20;22.33;;;4.03;;
83176;SDS011;73074;52.006;4.704;2023-11-19T17:34:24;11.80;;;2.85;;
83176;SDS011;73074;52.006;4.704;2023-11-19T17:39:38;22.67;;;3.40;;
83176;SDS011;73074;52.006;4.704;2023-11-19T17:44:49;20.30;;;3.90;;
83176;SDS011;73074;52.006;4.704;2023-11-19T17:49:50;18.50;;;2.75;;
83176;SDS011;73074;52.006;4.704;2023-11-19T17:54:57;20.52;;;3.75;;
83176;SDS011;73074;52.006;4.704;2023-11-19T18:00:01;20.40;;;3.30;;
83176;SDS011;73074;52.006;4.704;2023-11-19T18:05:05;21.10;;;3.28;;
83176;SDS011;73074;52.006;4.704;2023-11-19T18:10:10;26.45;;;3.58;;
83176;SDS011;73074;52.006;4.704;2023-11-19T18:20:36;22.88;;;3.53;;
83176;SDS011;73074;52.006;4.704;2023-11-19T18:25:40;22.08;;;4.07;;
83176;SDS011;73074;52.006;4.704;2023-11-19T18:30:42;14.68;;;3.80;;
83176;SDS011;73074;52.006;4.704;2023-11-19T18:35:42;21.67;;;2.55;;
83176;SDS011;73074;52.006;4.704;2023-11-19T18:40:44;26.67;;;3.28;;
83176;SDS011;73074;52.006;4.704;2023-11-19T18:45:48;25.80;;;3.30;;
83176;SDS011;73074;52.006;4.704;2023-11-19T18:50:50;21.90;;;3.42;;
83176;SDS011;73074;52.006;4.704;2023-11-19T18:55:56;22.83;;;3.42;;
83176;SDS011;73074;52.006;4.704;2023-11-19T19:01:11;21.48;;;3.38;;
83176;SDS011;73074;52.006;4.704;2023-11-19T19:11:18;22.52;;;3.53;;
83176;SDS011;73074;52.006;4.704;2023-11-19T19:16:19;26.85;;;4.50;;
83176;SDS011;73074;52.006;4.704;2023-11-19T19:21:21;21.30;;;2.90;;
83176;SDS011;73074;52.006;4.704;2023-11-19T19:26:22;19.80;;;4.07;;
83176;SDS011;73074;52.006;4.704;2023-11-19T19:31:32;19.98;;;5.43;;
83176;SDS011;73074;52.006;4.704;2023-11-19T19:36:34;18.70;;;4.18;;
83176;SDS011;73074;52.006;4.704;2023-11-19T19:41:52;14.27;;;3.33;;
83176;SDS011;73074;52.006;4.704;2023-11-19T19:46:56;24.45;;;3.50;;
83176;SDS011;73074;52.006;4.704;2023-11-19T19:52:01;22.73;;;3.97;;
83176;SDS011;73074;52.006;4.704;2023-11-19T19:57:22;18.65;;;3.58;;
83176;SDS011;73074;52.006;4.704;2023-11-19T20:02:26;21.38;;;2.83;;
83176;SDS011;73074;52.006;4.704;2023-11-19T20:13:24;32.33;;;4.35;;
83176;SDS011;73074;52.006;4.704;2023-11-19T20:18:33;22.05;;;3.67;;
83176;SDS011;73074;52.006;4.704;2023-11-19T20:23:37;22.20;;;2.90;;
83176;SDS011;73074;52.006;4.704;2023-11-19T20:28:45;30.92;;;3.80;;
83176;SDS011;73074;52.006;4.704;2023-11-19T20:33:51;20.33;;;3.70;;
83176;SDS011;73074;52.006;4.704;2023-11-19T20:39:07;21.67;;;3.65;;
83176;SDS011;73074;52.006;4.704;2023-11-19T20:44:10;22.00;;;2.92;;
83176;SDS011;73074;52.006;4.704;2023-11-19T20:54:45;22.75;;;2.83;;
83176;SDS011;73074;52.006;4.704;2023-11-19T20:59:56;17.83;;;3.28;;
83176;SDS011;73074;52.006;4.704;2023-11-19T21:05:26;17.85;;;3.53;;
83176;SDS011;73074;52.006;4.704;2023-11-19T21:10:35;14.70;;;2.47;;
83176;SDS011;73074;52.006;4.704;2023-11-19T21:15:40;14.35;;;2.58;;
83176;SDS011;73074;52.006;4.704;2023-11-19T21:20:47;15.70;;;2.35;;
83176;SDS011;73074;52.006;4.704;2023-11-19T21:25:49;15.93;;;2.22;;
83176;SDS011;73074;52.006;4.704;2023-11-19T21:30:51;14.68;;;3.10;;
83176;SDS011;73074;52.006;4.704;2023-11-19T21:35:52;15.52;;;2.25;;
83176;SDS011;73074;52.006;4.704;2023-11-19T21:40:53;10.98;;;2.13;;
83176;SDS011;73074;52.006;4.704;2023-11-19T21:46:00;12.35;;;1.92;;
83176;SDS011;73074;52.006;4.704;2023-11-19T21:51:03;16.23;;;2.15;;
83176;SDS011;73074;52.006;4.704;2023-11-19T22:06:51;16.98;;;2.20;;
83176;SDS011;73074;52.006;4.704;2023-11-19T22:11:57;13.95;;;2.67;;
83176;SDS011;73074;52.006;4.704;2023-11-19T22:16:57;14.25;;;2.63;;
83176;SDS011;73074;52.006;4.704;2023-11-19T22:22:00;13.60;;;2.33;;
83176;SDS011;73074;52.006;4.704;2023-11-19T22:27:03;9.35;;;1.85;;
83176;SDS011;73074;52.006;4.704;2023-11-19T22:32:11;18.08;;;2.65;;
83176;SDS011;73074;52.006;4.704;2023-11-19T22:37:29;14.07;;;2.08;;
83176;SDS011;73074;52.006;4.704;2023-11-19T22:42:36;13.18;;;2.05;;
83176;SDS011;73074;52.006;4.704;2023-11-19T22:47:37;10.40;;;1.65;;
83176;SDS011;73074;52.006;4.704;2023-11-19T22:52:38;10.27;;;1.33;;
83176;SDS011;73074;52.006;4.704;2023-11-19T22:57:43;10.27;;;2.15;;
83176;SDS011;73074;52.006;4.704;2023-11-19T23:02:44;10.63;;;1.70;;
83176;SDS011;73074;52.006;4.704;2023-11-19T23:07:53;9.77;;;1.25;;
83176;SDS011;73074;52.006;4.704;2023-11-19T23:13:02;13.10;;;1.90;;
83176;SDS011;73074;52.006;4.704;2023-11-19T23:18:03;13.35;;;3.17;;
83176;SDS011;73074;52.006;4.704;2023-11-19T23:23:04;12.48;;;2.17;;
83176;SDS011;73074;52.006;4.704;2023-11-19T23:28:07;11.73;;;1.50;;
83176;SDS011;73074;52.006;4.704;2023-11-19T23:33:16;7.38;;;1.42;;
83176;SDS011;73074;52.006;4.704;2023-11-19T23:38:22;14.63;;;1.75;;
83176;SDS011;73074;52.006;4.704;2023-11-19T23:43:39;8.35;;;1.67;;
83176;SDS011;73074;52.006;4.704;2023-11-19T23:48:45;9.93;;;1.60;;
83176;SDS011;73074;52.006;4.704;2023-11-19T23:53:46;10.90;;;1.73;;
83176;SDS011;73074;52.006;4.704;2023-11-19T23:58:54;11.00;;;2.20;;
